sensor_id;sensor_type;location;lat;lon;timestamp;temperature;humidity
69595;DHT22;56800;52.142;5.364;2022-10-18T00:02:10;16.20;83.70
69595;DHT22;56800;52.142;5.364;2022-10-18T00:04:37;16.20;83.70
69595;DHT22;56800;52.142;5.364;2022-10-18T00:07:04;16.10;83.80
69595;DHT22;56800;52.142;5.364;2022-10-18T00:09:30;16.10;83.70
69595;DHT22;56800;52.142;5.364;2022-10-18T00:11:57;16.10;83.70
69595;DHT22;56800;52.142;5.364;2022-10-18T00:14:24;16.00;83.60
69595;DHT22;56800;52.142;5.364;2022-10-18T00:16:50;16.00;83.60
69595;DHT22;56800;52.142;5.364;2022-10-18T00:19:17;16.00;83.60
69595;DHT22;56800;52.142;5.364;2022-10-18T00:21:43;16.00;83.50
69595;DHT22;56800;52.142;5.364;2022-10-18T00:24:15;16.00;83.50
69595;DHT22;56800;52.142;5.364;2022-10-18T00:26:42;16.00;83.50
69595;DHT22;56800;52.142;5.364;2022-10-18T00:29:11;15.90;83.40
69595;DHT22;56800;52.142;5.364;2022-10-18T00:31:38;15.90;83.40
69595;DHT22;56800;52.142;5.364;2022-10-18T00:34:09;15.90;83.40
69595;DHT22;56800;52.142;5.364;2022-10-18T00:36:36;15.90;83.40
69595;DHT22;56800;52.142;5.364;2022-10-18T00:39:04;15.90;83.40
69595;DHT22;56800;52.142;5.364;2022-10-18T00:41:33;15.80;83.30
69595;DHT22;56800;52.142;5.364;2022-10-18T00:47:02;15.80;83.30
69595;DHT22;56800;52.142;5.364;2022-10-18T00:49:42;15.80;83.30
69595;DHT22;56800;52.142;5.364;2022-10-18T00:52:20;15.80;83.30
69595;DHT22;56800;52.142;5.364;2022-10-18T00:54:48;15.70;83.20
69595;DHT22;56800;52.142;5.364;2022-10-18T00:57:16;15.70;83.30
69595;DHT22;56800;52.142;5.364;2022-10-18T00:59:43;15.70;83.20
69595;DHT22;56800;52.142;5.364;2022-10-18T01:02:11;15.70;83.10
69595;DHT22;56800;52.142;5.364;2022-10-18T01:04:40;15.60;83.10
69595;DHT22;56800;52.142;5.364;2022-10-18T01:10:21;15.60;82.90
69595;DHT22;56800;52.142;5.364;2022-10-18T01:13:25;15.60;82.80
69595;DHT22;56800;52.142;5.364;2022-10-18T01:15:57;15.50;82.70
69595;DHT22;56800;52.142;5.364;2022-10-18T01:27:13;15.40;82.90
69595;DHT22;56800;52.142;5.364;2022-10-18T01:30:13;15.40;83.10
69595;DHT22;56800;52.142;5.364;2022-10-18T01:32:45;15.40;83.10
69595;DHT22;56800;52.142;5.364;2022-10-18T01:35:16;15.40;83.20
69595;DHT22;56800;52.142;5.364;2022-10-18T01:37:45;15.30;83.20
69595;DHT22;56800;52.142;5.364;2022-10-18T01:40:15;15.30;83.30
69595;DHT22;56800;52.142;5.364;2022-10-18T01:42:45;15.30;83.30
69595;DHT22;56800;52.142;5.364;2022-10-18T01:45:13;15.30;83.40
69595;DHT22;56800;52.142;5.364;2022-10-18T01:47:45;15.30;83.40
69595;DHT22;56800;52.142;5.364;2022-10-18T01:50:12;15.30;83.40
69595;DHT22;56800;52.142;5.364;2022-10-18T01:52:49;15.30;83.40
69595;DHT22;56800;52.142;5.364;2022-10-18T01:55:17;15.30;83.40
69595;DHT22;56800;52.142;5.364;2022-10-18T01:58:11;15.30;83.50
69595;DHT22;56800;52.142;5.364;2022-10-18T02:00:43;15.30;83.60
69595;DHT22;56800;52.142;5.364;2022-10-18T02:03:20;15.30;83.50
69595;DHT22;56800;52.142;5.364;2022-10-18T02:08:36;15.30;83.50
69595;DHT22;56800;52.142;5.364;2022-10-18T02:11:04;15.30;83.50
69595;DHT22;56800;52.142;5.364;2022-10-18T02:13:48;15.30;83.50
69595;DHT22;56800;52.142;5.364;2022-10-18T02:16:37;15.30;83.40
69595;DHT22;56800;52.142;5.364;2022-10-18T02:21:37;15.20;83.40
69595;DHT22;56800;52.142;5.364;2022-10-18T02:24:07;15.20;83.40
69595;DHT22;56800;52.142;5.364;2022-10-18T02:26:34;15.20;83.40
69595;DHT22;56800;52.142;5.364;2022-10-18T02:29:01;15.20;83.40
69595;DHT22;56800;52.142;5.364;2022-10-18T02:31:35;15.20;83.40
69595;DHT22;56800;52.142;5.364;2022-10-18T02:34:22;15.20;83.40
69595;DHT22;56800;52.142;5.364;2022-10-18T02:36:53;15.20;83.40
69595;DHT22;56800;52.142;5.364;2022-10-18T02:39:29;15.20;83.30
69595;DHT22;56800;52.142;5.364;2022-10-18T02:41:57;15.10;83.20
69595;DHT22;56800;52.142;5.364;2022-10-18T02:44:24;15.10;83.20
69595;DHT22;56800;52.142;5.364;2022-10-18T02:46:51;15.10;83.20
69595;DHT22;56800;52.142;5.364;2022-10-18T02:49:18;15.10;83.30
69595;DHT22;56800;52.142;5.364;2022-10-18T02:51:44;15.10;83.20
69595;DHT22;56800;52.142;5.364;2022-10-18T02:54:11;15.10;83.20
69595;DHT22;56800;52.142;5.364;2022-10-18T02:56:38;15.10;83.20
69595;DHT22;56800;52.142;5.364;2022-10-18T02:59:04;15.00;83.10
69595;DHT22;56800;52.142;5.364;2022-10-18T03:01:33;15.00;83.20
69595;DHT22;56800;52.142;5.364;2022-10-18T03:04:02;15.00;83.10
69595;DHT22;56800;52.142;5.364;2022-10-18T03:06:30;15.00;83.10
69595;DHT22;56800;52.142;5.364;2022-10-18T03:08:56;15.00;83.00
69595;DHT22;56800;52.142;5.364;2022-10-18T03:11:23;14.90;82.90
69595;DHT22;56800;52.142;5.364;2022-10-18T03:13:49;14.90;83.00
69595;DHT22;56800;52.142;5.364;2022-10-18T03:16:16;14.90;83.00
69595;DHT22;56800;52.142;5.364;2022-10-18T03:18:43;14.90;83.00
69595;DHT22;56800;52.142;5.364;2022-10-18T03:21:10;14.90;83.10
69595;DHT22;56800;52.142;5.364;2022-10-18T03:23:36;14.90;83.10
69595;DHT22;56800;52.142;5.364;2022-10-18T03:26:03;14.90;83.20
69595;DHT22;56800;52.142;5.364;2022-10-18T03:28:29;14.90;83.20
69595;DHT22;56800;52.142;5.364;2022-10-18T03:31:00;14.90;83.30
69595;DHT22;56800;52.142;5.364;2022-10-18T03:33:28;14.90;83.30
69595;DHT22;56800;52.142;5.364;2022-10-18T03:35:55;14.90;83.30
69595;DHT22;56800;52.142;5.364;2022-10-18T03:38:21;14.90;83.40
69595;DHT22;56800;52.142;5.364;2022-10-18T03:40:48;14.90;83.30
69595;DHT22;56800;52.142;5.364;2022-10-18T03:43:15;14.90;83.30
69595;DHT22;56800;52.142;5.364;2022-10-18T03:45:41;15.00;83.40
69595;DHT22;56800;52.142;5.364;2022-10-18T03:48:08;14.90;83.40
69595;DHT22;56800;52.142;5.364;2022-10-18T03:50:35;15.00;83.60
69595;DHT22;56800;52.142;5.364;2022-10-18T03:53:01;15.00;83.60
69595;DHT22;56800;52.142;5.364;2022-10-18T03:55:28;15.00;83.70
69595;DHT22;56800;52.142;5.364;2022-10-18T03:57:54;15.00;83.70
69595;DHT22;56800;52.142;5.364;2022-10-18T04:00:21;15.00;83.70
69595;DHT22;56800;52.142;5.364;2022-10-18T04:02:48;15.00;83.70
69595;DHT22;56800;52.142;5.364;2022-10-18T04:05:20;15.00;83.70
69595;DHT22;56800;52.142;5.364;2022-10-18T04:07:49;15.00;83.70
69595;DHT22;56800;52.142;5.364;2022-10-18T04:10:16;15.00;83.70
69595;DHT22;56800;52.142;5.364;2022-10-18T04:12:44;15.00;83.70
69595;DHT22;56800;52.142;5.364;2022-10-18T04:15:10;14.90;83.60
69595;DHT22;56800;52.142;5.364;2022-10-18T04:17:37;14.90;83.60
69595;DHT22;56800;52.142;5.364;2022-10-18T04:20:04;14.90;83.70
69595;DHT22;56800;52.142;5.364;2022-10-18T04:22:31;14.90;83.70
69595;DHT22;56800;52.142;5.364;2022-10-18T04:24:57;14.90;83.80
69595;DHT22;56800;52.142;5.364;2022-10-18T04:27:24;14.90;83.80
69595;DHT22;56800;52.142;5.364;2022-10-18T04:29:51;14.90;83.80
69595;DHT22;56800;52.142;5.364;2022-10-18T04:32:17;14.90;83.70
69595;DHT22;56800;52.142;5.364;2022-10-18T04:34:44;14.90;83.70
69595;DHT22;56800;52.142;5.364;2022-10-18T04:37:10;14.90;83.70
69595;DHT22;56800;52.142;5.364;2022-10-18T04:39:37;14.90;83.70
69595;DHT22;56800;52.142;5.364;2022-10-18T04:42:04;14.80;83.60
69595;DHT22;56800;52.142;5.364;2022-10-18T04:44:30;14.80;83.60
69595;DHT22;56800;52.142;5.364;2022-10-18T04:46:57;14.80;83.50
69595;DHT22;56800;52.142;5.364;2022-10-18T04:49:24;14.80;83.50
69595;DHT22;56800;52.142;5.364;2022-10-18T04:51:51;14.70;83.50
69595;DHT22;56800;52.142;5.364;2022-10-18T04:54:17;14.70;83.60
69595;DHT22;56800;52.142;5.364;2022-10-18T04:56:44;14.70;83.60
69595;DHT22;56800;52.142;5.364;2022-10-18T04:59:10;14.70;83.60
69595;DHT22;56800;52.142;5.364;2022-10-18T05:01:37;14.70;83.60
69595;DHT22;56800;52.142;5.364;2022-10-18T05:04:04;14.70;83.60
69595;DHT22;56800;52.142;5.364;2022-10-18T05:06:30;14.70;83.60
69595;DHT22;56800;52.142;5.364;2022-10-18T05:08:57;14.70;83.60
69595;DHT22;56800;52.142;5.364;2022-10-18T05:11:24;14.70;84.40
69595;DHT22;56800;52.142;5.364;2022-10-18T05:13:50;14.70;83.70
69595;DHT22;56800;52.142;5.364;2022-10-18T05:16:17;14.80;83.70
69595;DHT22;56800;52.142;5.364;2022-10-18T05:18:44;14.80;84.50
69595;DHT22;56800;52.142;5.364;2022-10-18T05:21:10;14.80;83.80
69595;DHT22;56800;52.142;5.364;2022-10-18T05:23:38;14.70;83.70
69595;DHT22;56800;52.142;5.364;2022-10-18T05:26:05;14.70;83.70
69595;DHT22;56800;52.142;5.364;2022-10-18T05:28:33;14.70;83.80
69595;DHT22;56800;52.142;5.364;2022-10-18T05:31:08;14.70;83.80
69595;DHT22;56800;52.142;5.364;2022-10-18T05:33:35;14.70;83.70
69595;DHT22;56800;52.142;5.364;2022-10-18T05:36:02;14.70;83.70
69595;DHT22;56800;52.142;5.364;2022-10-18T05:38:29;14.60;84.50
69595;DHT22;56800;52.142;5.364;2022-10-18T05:40:57;14.60;83.60
69595;DHT22;56800;52.142;5.364;2022-10-18T05:43:27;14.60;83.60
69595;DHT22;56800;52.142;5.364;2022-10-18T05:45:54;14.60;83.70
69595;DHT22;56800;52.142;5.364;2022-10-18T05:48:21;14.50;83.60
69595;DHT22;56800;52.142;5.364;2022-10-18T05:50:48;14.50;83.60
69595;DHT22;56800;52.142;5.364;2022-10-18T05:53:14;14.50;83.40
69595;DHT22;56800;52.142;5.364;2022-10-18T05:56:01;14.40;83.30
69595;DHT22;56800;52.142;5.364;2022-10-18T05:58:28;14.40;83.20
69595;DHT22;56800;52.142;5.364;2022-10-18T06:00:58;14.40;83.10
69595;DHT22;56800;52.142;5.364;2022-10-18T06:03:25;14.30;83.10
69595;DHT22;56800;52.142;5.364;2022-10-18T06:05:58;14.30;83.00
69595;DHT22;56800;52.142;5.364;2022-10-18T06:08:24;14.30;83.00
69595;DHT22;56800;52.142;5.364;2022-10-18T06:10:51;14.20;83.00
69595;DHT22;56800;52.142;5.364;2022-10-18T06:13:18;14.10;82.90
69595;DHT22;56800;52.142;5.364;2022-10-18T06:15:44;14.10;82.90
69595;DHT22;56800;52.142;5.364;2022-10-18T06:18:11;14.00;82.90
69595;DHT22;56800;52.142;5.364;2022-10-18T06:20:38;14.00;82.90
69595;DHT22;56800;52.142;5.364;2022-10-18T06:23:04;14.00;82.90
69595;DHT22;56800;52.142;5.364;2022-10-18T06:25:31;13.90;82.80
69595;DHT22;56800;52.142;5.364;2022-10-18T06:27:57;13.90;82.80
69595;DHT22;56800;52.142;5.364;2022-10-18T06:30:24;13.90;82.70
69595;DHT22;56800;52.142;5.364;2022-10-18T06:32:51;13.80;82.50
69595;DHT22;56800;52.142;5.364;2022-10-18T06:35:17;13.80;82.60
69595;DHT22;56800;52.142;5.364;2022-10-18T06:37:44;13.70;82.70
69595;DHT22;56800;52.142;5.364;2022-10-18T06:40:10;13.70;82.70
69595;DHT22;56800;52.142;5.364;2022-10-18T06:42:37;13.60;82.70
69595;DHT22;56800;52.142;5.364;2022-10-18T06:45:04;13.60;82.70
69595;DHT22;56800;52.142;5.364;2022-10-18T06:47:31;13.60;82.80
69595;DHT22;56800;52.142;5.364;2022-10-18T06:49:58;13.60;82.70
69595;DHT22;56800;52.142;5.364;2022-10-18T06:52:25;13.60;82.60
69595;DHT22;56800;52.142;5.364;2022-10-18T06:54:51;13.50;82.60
69595;DHT22;56800;52.142;5.364;2022-10-18T06:57:19;13.50;82.60
69595;DHT22;56800;52.142;5.364;2022-10-18T06:59:46;13.50;82.60
69595;DHT22;56800;52.142;5.364;2022-10-18T07:02:14;13.50;82.40
69595;DHT22;56800;52.142;5.364;2022-10-18T07:04:42;13.40;82.50
69595;DHT22;56800;52.142;5.364;2022-10-18T07:07:09;13.40;83.20
69595;DHT22;56800;52.142;5.364;2022-10-18T07:09:35;13.40;82.40
69595;DHT22;56800;52.142;5.364;2022-10-18T07:12:02;13.40;82.50
69595;DHT22;56800;52.142;5.364;2022-10-18T07:14:29;13.40;82.40
69595;DHT22;56800;52.142;5.364;2022-10-18T07:16:58;13.30;82.40
69595;DHT22;56800;52.142;5.364;2022-10-18T07:19:24;13.30;82.50
69595;DHT22;56800;52.142;5.364;2022-10-18T07:21:51;13.30;82.60
69595;DHT22;56800;52.142;5.364;2022-10-18T07:24:18;13.30;82.60
69595;DHT22;56800;52.142;5.364;2022-10-18T07:26:44;13.30;82.60
69595;DHT22;56800;52.142;5.364;2022-10-18T07:29:11;13.30;82.70
69595;DHT22;56800;52.142;5.364;2022-10-18T07:31:38;13.30;82.70
69595;DHT22;56800;52.142;5.364;2022-10-18T07:34:07;13.30;82.80
69595;DHT22;56800;52.142;5.364;2022-10-18T07:36:34;13.30;82.80
69595;DHT22;56800;52.142;5.364;2022-10-18T07:39:00;13.30;82.90
69595;DHT22;56800;52.142;5.364;2022-10-18T07:41:27;13.30;82.90
69595;DHT22;56800;52.142;5.364;2022-10-18T07:43:54;13.40;82.90
69595;DHT22;56800;52.142;5.364;2022-10-18T07:46:21;13.40;82.90
69595;DHT22;56800;52.142;5.364;2022-10-18T07:48:48;13.40;83.00
69595;DHT22;56800;52.142;5.364;2022-10-18T07:51:16;13.40;83.00
69595;DHT22;56800;52.142;5.364;2022-10-18T07:53:43;13.50;83.10
69595;DHT22;56800;52.142;5.364;2022-10-18T07:56:13;13.50;83.20
69595;DHT22;56800;52.142;5.364;2022-10-18T07:58:43;13.50;83.30
69595;DHT22;56800;52.142;5.364;2022-10-18T08:01:10;13.60;83.30
69595;DHT22;56800;52.142;5.364;2022-10-18T08:03:39;13.60;83.40
69595;DHT22;56800;52.142;5.364;2022-10-18T08:06:07;13.60;83.40
69595;DHT22;56800;52.142;5.364;2022-10-18T08:08:36;13.70;83.50
69595;DHT22;56800;52.142;5.364;2022-10-18T08:11:06;13.80;83.60
69595;DHT22;56800;52.142;5.364;2022-10-18T08:13:33;13.80;83.60
69595;DHT22;56800;52.142;5.364;2022-10-18T08:16:01;13.90;83.80
69595;DHT22;56800;52.142;5.364;2022-10-18T08:18:28;13.90;83.90
69595;DHT22;56800;52.142;5.364;2022-10-18T08:20:56;14.00;84.30
69595;DHT22;56800;52.142;5.364;2022-10-18T08:23:24;14.10;84.20
69595;DHT22;56800;52.142;5.364;2022-10-18T08:25:51;14.20;83.90
69595;DHT22;56800;52.142;5.364;2022-10-18T08:28:18;14.30;83.50
69595;DHT22;56800;52.142;5.364;2022-10-18T08:30:44;14.30;83.30
69595;DHT22;56800;52.142;5.364;2022-10-18T08:33:11;14.30;83.20
69595;DHT22;56800;52.142;5.364;2022-10-18T08:35:38;14.40;83.30
69595;DHT22;56800;52.142;5.364;2022-10-18T08:38:04;14.40;83.30
69595;DHT22;56800;52.142;5.364;2022-10-18T08:40:44;14.40;83.40
69595;DHT22;56800;52.142;5.364;2022-10-18T08:43:30;14.50;83.60
69595;DHT22;56800;52.142;5.364;2022-10-18T08:46:00;14.50;83.60
69595;DHT22;56800;52.142;5.364;2022-10-18T08:48:33;14.80;85.00
69595;DHT22;56800;52.142;5.364;2022-10-18T08:51:02;15.10;85.20
69595;DHT22;56800;52.142;5.364;2022-10-18T08:53:42;15.40;84.20
69595;DHT22;56800;52.142;5.364;2022-10-18T08:56:11;15.50;83.00
69595;DHT22;56800;52.142;5.364;2022-10-18T08:58:42;15.60;82.50
69595;DHT22;56800;52.142;5.364;2022-10-18T09:09:38;15.90;82.10
69595;DHT22;56800;52.142;5.364;2022-10-18T09:18:12;16.50;82.90
69595;DHT22;56800;52.142;5.364;2022-10-18T09:20:55;17.20;83.30
69595;DHT22;56800;52.142;5.364;2022-10-18T09:23:37;18.80;81.90
69595;DHT22;56800;52.142;5.364;2022-10-18T09:26:16;21.10;76.50
69595;DHT22;56800;52.142;5.364;2022-10-18T09:29:06;23.10;70.70
69595;DHT22;56800;52.142;5.364;2022-10-18T09:31:45;24.70;65.40
69595;DHT22;56800;52.142;5.364;2022-10-18T09:36:51;27.40;60.10
69595;DHT22;56800;52.142;5.364;2022-10-18T09:39:22;28.40;57.80
69595;DHT22;56800;52.142;5.364;2022-10-18T09:42:04;28.90;55.50
69595;DHT22;56800;52.142;5.364;2022-10-18T09:44:43;28.60;53.70
69595;DHT22;56800;52.142;5.364;2022-10-18T09:47:35;28.20;54.60
69595;DHT22;56800;52.142;5.364;2022-10-18T09:53:18;27.20;54.10
69595;DHT22;56800;52.142;5.364;2022-10-18T09:56:01;26.20;55.00
69595;DHT22;56800;52.142;5.364;2022-10-18T09:58:40;25.20;56.90
69595;DHT22;56800;52.142;5.364;2022-10-18T10:01:09;24.50;58.10
69595;DHT22;56800;52.142;5.364;2022-10-18T10:03:38;24.10;58.10
69595;DHT22;56800;52.142;5.364;2022-10-18T10:08:46;23.20;58.80
69595;DHT22;56800;52.142;5.364;2022-10-18T10:11:46;22.80;59.30
69595;DHT22;56800;52.142;5.364;2022-10-18T10:14:15;22.50;59.70
69595;DHT22;56800;52.142;5.364;2022-10-18T10:16:51;22.50;61.10
69595;DHT22;56800;52.142;5.364;2022-10-18T10:22:12;22.40;59.00
69595;DHT22;56800;52.142;5.364;2022-10-18T10:24:49;22.20;59.50
69595;DHT22;56800;52.142;5.364;2022-10-18T10:27:37;21.90;60.00
69595;DHT22;56800;52.142;5.364;2022-10-18T10:30:35;21.60;60.00
69595;DHT22;56800;52.142;5.364;2022-10-18T10:33:03;21.30;60.20
69595;DHT22;56800;52.142;5.364;2022-10-18T10:35:33;21.20;60.20
69595;DHT22;56800;52.142;5.364;2022-10-18T10:38:24;21.20;59.60
69595;DHT22;56800;52.142;5.364;2022-10-18T10:40:52;21.10;59.80
69595;DHT22;56800;52.142;5.364;2022-10-18T10:43:33;20.90;59.80
69595;DHT22;56800;52.142;5.364;2022-10-18T10:46:15;20.70;59.90
69595;DHT22;56800;52.142;5.364;2022-10-18T10:48:53;20.50;59.50
69595;DHT22;56800;52.142;5.364;2022-10-18T10:51:41;20.10;59.70
69595;DHT22;56800;52.142;5.364;2022-10-18T10:54:15;19.90;60.00
69595;DHT22;56800;52.142;5.364;2022-10-18T10:57:00;19.60;60.60
69595;DHT22;56800;52.142;5.364;2022-10-18T10:59:30;19.50;61.00
69595;DHT22;56800;52.142;5.364;2022-10-18T11:02:19;19.40;61.00
69595;DHT22;56800;52.142;5.364;2022-10-18T11:04:49;19.30;61.00
69595;DHT22;56800;52.142;5.364;2022-10-18T11:15:42;19.00;62.10
69595;DHT22;56800;52.142;5.364;2022-10-18T11:21:04;18.90;62.70
69595;DHT22;56800;52.142;5.364;2022-10-18T11:23:38;18.90;62.30
69595;DHT22;56800;52.142;5.364;2022-10-18T11:34:15;18.90;62.90
69595;DHT22;56800;52.142;5.364;2022-10-18T11:43:11;18.90;62.70
69595;DHT22;56800;52.142;5.364;2022-10-18T11:48:56;19.00;61.20
69595;DHT22;56800;52.142;5.364;2022-10-18T12:05:28;20.10;60.80
69595;DHT22;56800;52.142;5.364;2022-10-18T12:08:04;20.30;60.40
69595;DHT22;56800;52.142;5.364;2022-10-18T12:10:34;20.50;60.30
69595;DHT22;56800;52.142;5.364;2022-10-18T12:13:49;20.70;58.70
69595;DHT22;56800;52.142;5.364;2022-10-18T12:16:19;20.90;57.20
69595;DHT22;56800;52.142;5.364;2022-10-18T12:19:12;21.10;57.30
69595;DHT22;56800;52.142;5.364;2022-10-18T12:21:42;21.40;57.10
69595;DHT22;56800;52.142;5.364;2022-10-18T12:24:16;21.60;56.10
69595;DHT22;56800;52.142;5.364;2022-10-18T12:26:46;21.70;56.00
69595;DHT22;56800;52.142;5.364;2022-10-18T12:29:29;21.80;55.20
69595;DHT22;56800;52.142;5.364;2022-10-18T12:32:19;21.90;54.10
69595;DHT22;56800;52.142;5.364;2022-10-18T12:34:51;21.90;53.80
69595;DHT22;56800;52.142;5.364;2022-10-18T12:37:47;22.00;53.60
69595;DHT22;56800;52.142;5.364;2022-10-18T12:40:39;21.90;53.60
69595;DHT22;56800;52.142;5.364;2022-10-18T12:43:08;21.90;54.00
69595;DHT22;56800;52.142;5.364;2022-10-18T12:45:48;21.90;54.20
69595;DHT22;56800;52.142;5.364;2022-10-18T12:48:37;21.90;53.70
69595;DHT22;56800;52.142;5.364;2022-10-18T12:51:06;21.90;54.30
69595;DHT22;56800;52.142;5.364;2022-10-18T12:53:37;22.00;54.40
69595;DHT22;56800;52.142;5.364;2022-10-18T13:18:53;21.40;53.30
69595;DHT22;56800;52.142;5.364;2022-10-18T13:24:34;21.30;53.10
69595;DHT22;56800;52.142;5.364;2022-10-18T13:27:27;21.20;54.00
69595;DHT22;56800;52.142;5.364;2022-10-18T13:30:31;21.10;54.00
69595;DHT22;56800;52.142;5.364;2022-10-18T13:33:14;21.00;54.20
69595;DHT22;56800;52.142;5.364;2022-10-18T13:46:19;20.50;55.00
69595;DHT22;56800;52.142;5.364;2022-10-18T13:48:48;20.40;55.10
69595;DHT22;56800;52.142;5.364;2022-10-18T13:56:45;20.10;55.70
69595;DHT22;56800;52.142;5.364;2022-10-18T14:02:39;20.00;56.40
69595;DHT22;56800;52.142;5.364;2022-10-18T14:05:30;19.90;56.70
69595;DHT22;56800;52.142;5.364;2022-10-18T14:08:02;19.80;57.20
69595;DHT22;56800;52.142;5.364;2022-10-18T14:10:50;19.80;57.30
69595;DHT22;56800;52.142;5.364;2022-10-18T14:13:54;19.70;57.00
69595;DHT22;56800;52.142;5.364;2022-10-18T14:19:32;19.60;57.10
69595;DHT22;56800;52.142;5.364;2022-10-18T14:22:20;19.60;56.80
69595;DHT22;56800;52.142;5.364;2022-10-18T14:24:51;19.50;56.60
69595;DHT22;56800;52.142;5.364;2022-10-18T14:27:23;19.40;57.70
69595;DHT22;56800;52.142;5.364;2022-10-18T14:32:35;19.40;58.40
69595;DHT22;56800;52.142;5.364;2022-10-18T14:35:02;19.30;58.80
69595;DHT22;56800;52.142;5.364;2022-10-18T14:37:51;19.30;59.10
69595;DHT22;56800;52.142;5.364;2022-10-18T14:40:38;19.20;58.40
69595;DHT22;56800;52.142;5.364;2022-10-18T14:45:34;19.00;58.60
69595;DHT22;56800;52.142;5.364;2022-10-18T14:50:44;18.90;58.90
69595;DHT22;56800;52.142;5.364;2022-10-18T14:53:16;18.80;59.50
69595;DHT22;56800;52.142;5.364;2022-10-18T14:55:53;18.80;59.70
69595;DHT22;56800;52.142;5.364;2022-10-18T14:58:20;18.70;59.70
69595;DHT22;56800;52.142;5.364;2022-10-18T15:00:47;18.60;59.90
69595;DHT22;56800;52.142;5.364;2022-10-18T15:03:15;18.60;60.60
69595;DHT22;56800;52.142;5.364;2022-10-18T15:05:57;18.50;60.80
69595;DHT22;56800;52.142;5.364;2022-10-18T15:08:34;18.50;60.70
69595;DHT22;56800;52.142;5.364;2022-10-18T15:11:01;18.40;60.90
69595;DHT22;56800;52.142;5.364;2022-10-18T15:13:30;18.30;60.60
69595;DHT22;56800;52.142;5.364;2022-10-18T15:15:57;18.20;60.70
69595;DHT22;56800;52.142;5.364;2022-10-18T15:18:25;18.10;61.20
69595;DHT22;56800;52.142;5.364;2022-10-18T15:21:17;18.10;61.30
69595;DHT22;56800;52.142;5.364;2022-10-18T15:23:45;18.00;61.30
69595;DHT22;56800;52.142;5.364;2022-10-18T15:26:18;18.00;61.90
69595;DHT22;56800;52.142;5.364;2022-10-18T15:28:48;17.90;61.80
69595;DHT22;56800;52.142;5.364;2022-10-18T15:31:23;17.90;61.80
69595;DHT22;56800;52.142;5.364;2022-10-18T15:33:52;17.80;62.00
69595;DHT22;56800;52.142;5.364;2022-10-18T15:36:28;17.70;61.80
69595;DHT22;56800;52.142;5.364;2022-10-18T15:39:20;17.70;61.80
69595;DHT22;56800;52.142;5.364;2022-10-18T15:42:00;17.60;62.20
69595;DHT22;56800;52.142;5.364;2022-10-18T15:54:49;17.30;63.70
69595;DHT22;56800;52.142;5.364;2022-10-18T15:57:17;17.30;63.90
69595;DHT22;56800;52.142;5.364;2022-10-18T15:59:57;17.20;64.40
69595;DHT22;56800;52.142;5.364;2022-10-18T16:02:26;17.10;64.40
69595;DHT22;56800;52.142;5.364;2022-10-18T16:04:53;17.10;64.50
69595;DHT22;56800;52.142;5.364;2022-10-18T16:07:19;17.00;65.00
69595;DHT22;56800;52.142;5.364;2022-10-18T16:09:47;16.90;65.30
69595;DHT22;56800;52.142;5.364;2022-10-18T16:12:13;16.80;65.40
69595;DHT22;56800;52.142;5.364;2022-10-18T16:14:40;16.80;65.40
69595;DHT22;56800;52.142;5.364;2022-10-18T16:17:09;16.70;65.30
69595;DHT22;56800;52.142;5.364;2022-10-18T16:19:43;16.60;65.40
69595;DHT22;56800;52.142;5.364;2022-10-18T16:22:11;16.50;65.60
69595;DHT22;56800;52.142;5.364;2022-10-18T16:24:39;16.40;66.00
69595;DHT22;56800;52.142;5.364;2022-10-18T16:27:05;16.40;66.20
69595;DHT22;56800;52.142;5.364;2022-10-18T16:29:32;16.30;66.30
69595;DHT22;56800;52.142;5.364;2022-10-18T16:31:59;16.30;66.40
69595;DHT22;56800;52.142;5.364;2022-10-18T16:34:26;16.20;66.60
69595;DHT22;56800;52.142;5.364;2022-10-18T16:36:53;16.10;66.70
69595;DHT22;56800;52.142;5.364;2022-10-18T16:39:21;16.00;66.90
69595;DHT22;56800;52.142;5.364;2022-10-18T16:41:48;15.90;67.00
69595;DHT22;56800;52.142;5.364;2022-10-18T16:44:15;15.90;67.10
69595;DHT22;56800;52.142;5.364;2022-10-18T16:46:42;15.80;67.20
69595;DHT22;56800;52.142;5.364;2022-10-18T16:49:24;15.70;67.30
69595;DHT22;56800;52.142;5.364;2022-10-18T16:51:52;15.70;67.60
69595;DHT22;56800;52.142;5.364;2022-10-18T16:54:19;15.60;67.50
69595;DHT22;56800;52.142;5.364;2022-10-18T16:56:46;15.50;67.70
69595;DHT22;56800;52.142;5.364;2022-10-18T16:59:27;15.40;67.90
69595;DHT22;56800;52.142;5.364;2022-10-18T17:01:54;15.30;68.20
69595;DHT22;56800;52.142;5.364;2022-10-18T17:04:21;15.30;68.30
69595;DHT22;56800;52.142;5.364;2022-10-18T17:06:48;15.20;68.40
69595;DHT22;56800;52.142;5.364;2022-10-18T17:09:15;15.20;68.50
69595;DHT22;56800;52.142;5.364;2022-10-18T17:11:41;15.10;68.60
69595;DHT22;56800;52.142;5.364;2022-10-18T17:14:08;15.00;68.70
69595;DHT22;56800;52.142;5.364;2022-10-18T17:16:35;14.90;68.90
69595;DHT22;56800;52.142;5.364;2022-10-18T17:19:06;14.80;69.00
69595;DHT22;56800;52.142;5.364;2022-10-18T17:21:35;14.80;69.20
69595;DHT22;56800;52.142;5.364;2022-10-18T17:24:02;14.70;69.20
69595;DHT22;56800;52.142;5.364;2022-10-18T17:26:31;14.60;69.30
69595;DHT22;56800;52.142;5.364;2022-10-18T17:29:04;14.60;69.50
69595;DHT22;56800;52.142;5.364;2022-10-18T17:31:31;14.50;69.60
69595;DHT22;56800;52.142;5.364;2022-10-18T17:33:58;14.50;69.70
69595;DHT22;56800;52.142;5.364;2022-10-18T17:36:27;14.40;69.80
69595;DHT22;56800;52.142;5.364;2022-10-18T17:38:54;14.40;70.60
69595;DHT22;56800;52.142;5.364;2022-10-18T17:41:21;14.30;70.00
69595;DHT22;56800;52.142;5.364;2022-10-18T17:43:48;14.20;70.00
69595;DHT22;56800;52.142;5.364;2022-10-18T17:46:15;14.20;70.20
69595;DHT22;56800;52.142;5.364;2022-10-18T17:48:43;14.20;70.40
69595;DHT22;56800;52.142;5.364;2022-10-18T17:51:12;14.20;70.40
69595;DHT22;56800;52.142;5.364;2022-10-18T17:53:39;14.10;70.50
69595;DHT22;56800;52.142;5.364;2022-10-18T17:56:06;14.10;70.60
69595;DHT22;56800;52.142;5.364;2022-10-18T17:58:33;14.00;70.60
69595;DHT22;56800;52.142;5.364;2022-10-18T18:01:17;14.00;70.60
69595;DHT22;56800;52.142;5.364;2022-10-18T18:03:44;14.00;71.60
69595;DHT22;56800;52.142;5.364;2022-10-18T18:06:15;13.90;70.80
69595;DHT22;56800;52.142;5.364;2022-10-18T18:08:43;13.80;70.80
69595;DHT22;56800;52.142;5.364;2022-10-18T18:11:10;13.80;70.90
69595;DHT22;56800;52.142;5.364;2022-10-18T18:13:36;13.70;71.00
69595;DHT22;56800;52.142;5.364;2022-10-18T18:16:17;13.60;71.80
69595;DHT22;56800;52.142;5.364;2022-10-18T18:18:45;13.60;71.30
69595;DHT22;56800;52.142;5.364;2022-10-18T18:21:13;13.60;71.30
69595;DHT22;56800;52.142;5.364;2022-10-18T18:23:40;13.50;71.40
69595;DHT22;56800;52.142;5.364;2022-10-18T18:26:07;13.40;71.50
69595;DHT22;56800;52.142;5.364;2022-10-18T18:28:34;13.50;71.60
69595;DHT22;56800;52.142;5.364;2022-10-18T18:31:19;13.40;71.70